sensor_id;sensor_type;location;lat;lon;timestamp;temperature;humidity
16038;DHT22;8123;50.906;6.172;2023-04-07T00:00:18;9.00;99.90
16038;DHT22;8123;50.906;6.172;2023-04-07T00:02:44;9.00;99.90
16038;DHT22;8123;50.906;6.172;2023-04-07T00:05:09;9.00;99.90
16038;DHT22;8123;50.906;6.172;2023-04-07T00:07:35;9.00;99.90
16038;DHT22;8123;50.906;6.172;2023-04-07T00:10:01;9.00;99.90
16038;DHT22;8123;50.906;6.172;2023-04-07T00:12:26;9.00;99.90
16038;DHT22;8123;50.906;6.172;2023-04-07T00:14:52;8.90;99.90
16038;DHT22;8123;50.906;6.172;2023-04-07T00:17:17;9.00;99.90
16038;DHT22;8123;50.906;6.172;2023-04-07T00:19:43;8.90;99.90
16038;DHT22;8123;50.906;6.172;2023-04-07T00:22:09;8.90;99.90
16038;DHT22;8123;50.906;6.172;2023-04-07T00:24:34;8.90;99.90
16038;DHT22;8123;50.906;6.172;2023-04-07T00:27:00;8.90;99.90
16038;DHT22;8123;50.906;6.172;2023-04-07T00:29:26;8.90;99.90
16038;DHT22;8123;50.906;6.172;2023-04-07T00:31:52;8.90;99.90
16038;DHT22;8123;50.906;6.172;2023-04-07T00:34:17;8.80;99.90
16038;DHT22;8123;50.906;6.172;2023-04-07T00:36:43;9.10;99.90
16038;DHT22;8123;50.906;6.172;2023-04-07T00:39:09;8.90;99.90
16038;DHT22;8123;50.906;6.172;2023-04-07T00:41:34;9.20;99.90
16038;DHT22;8123;50.906;6.172;2023-04-07T00:44:01;9.00;99.90
16038;DHT22;8123;50.906;6.172;2023-04-07T00:46:27;8.80;99.90
16038;DHT22;8123;50.906;6.172;2023-04-07T00:48:53;8.80;99.90
16038;DHT22;8123;50.906;6.172;2023-04-07T00:51:21;8.70;99.90
16038;DHT22;8123;50.906;6.172;2023-04-07T00:53:48;8.70;99.90
16038;DHT22;8123;50.906;6.172;2023-04-07T00:56:14;8.70;99.90
16038;DHT22;8123;50.906;6.172;2023-04-07T00:58:39;8.80;99.90
16038;DHT22;8123;50.906;6.172;2023-04-07T01:01:25;8.80;99.90
16038;DHT22;8123;50.906;6.172;2023-04-07T01:04:38;8.90;99.90
16038;DHT22;8123;50.906;6.172;2023-04-07T01:06:48;8.80;99.90
16038;DHT22;8123;50.906;6.172;2023-04-07T01:09:20;8.80;99.90
16038;DHT22;8123;50.906;6.172;2023-04-07T01:14:50;8.80;99.90
16038;DHT22;8123;50.906;6.172;2023-04-07T01:17:18;8.90;99.90
16038;DHT22;8123;50.906;6.172;2023-04-07T01:19:54;9.00;99.90
16038;DHT22;8123;50.906;6.172;2023-04-07T01:22:41;9.10;99.90
16038;DHT22;8123;50.906;6.172;2023-04-07T01:30:56;8.80;99.90
16038;DHT22;8123;50.906;6.172;2023-04-07T01:33:23;8.80;99.90
16038;DHT22;8123;50.906;6.172;2023-04-07T01:35:50;8.80;99.90
16038;DHT22;8123;50.906;6.172;2023-04-07T01:38:16;8.80;99.90
16038;DHT22;8123;50.906;6.172;2023-04-07T01:40:43;8.80;99.90
16038;DHT22;8123;50.906;6.172;2023-04-07T01:43:10;8.80;99.90
16038;DHT22;8123;50.906;6.172;2023-04-07T01:45:37;8.80;99.90
16038;DHT22;8123;50.906;6.172;2023-04-07T01:48:05;8.80;99.90
16038;DHT22;8123;50.906;6.172;2023-04-07T01:50:32;8.80;99.90
16038;DHT22;8123;50.906;6.172;2023-04-07T01:52:59;8.80;99.90
16038;DHT22;8123;50.906;6.172;2023-04-07T01:55:25;8.80;99.90
16038;DHT22;8123;50.906;6.172;2023-04-07T01:57:52;8.80;99.90
16038;DHT22;8123;50.906;6.172;2023-04-07T02:00:18;8.80;99.90
16038;DHT22;8123;50.906;6.172;2023-04-07T02:02:46;8.80;99.90
16038;DHT22;8123;50.906;6.172;2023-04-07T02:05:18;8.80;99.90
16038;DHT22;8123;50.906;6.172;2023-04-07T02:07:52;8.80;99.90
16038;DHT22;8123;50.906;6.172;2023-04-07T02:10:23;8.80;99.90
16038;DHT22;8123;50.906;6.172;2023-04-07T02:12:50;8.70;99.90
16038;DHT22;8123;50.906;6.172;2023-04-07T02:15:17;8.70;99.90
16038;DHT22;8123;50.906;6.172;2023-04-07T02:17:47;8.70;99.90
16038;DHT22;8123;50.906;6.172;2023-04-07T02:20:15;8.80;99.90
16038;DHT22;8123;50.906;6.172;2023-04-07T02:22:42;8.80;99.90
16038;DHT22;8123;50.906;6.172;2023-04-07T02:25:26;8.80;99.90
16038;DHT22;8123;50.906;6.172;2023-04-07T02:27:53;8.80;99.90
16038;DHT22;8123;50.906;6.172;2023-04-07T02:30:19;8.80;99.90
16038;DHT22;8123;50.906;6.172;2023-04-07T02:32:45;8.80;99.90
16038;DHT22;8123;50.906;6.172;2023-04-07T02:35:11;8.80;99.90
16038;DHT22;8123;50.906;6.172;2023-04-07T02:37:37;8.80;99.90
16038;DHT22;8123;50.906;6.172;2023-04-07T02:40:04;8.80;99.90
16038;DHT22;8123;50.906;6.172;2023-04-07T02:42:30;8.80;99.90
16038;DHT22;8123;50.906;6.172;2023-04-07T02:44:56;8.70;99.90
16038;DHT22;8123;50.906;6.172;2023-04-07T02:47:21;8.80;99.90
16038;DHT22;8123;50.906;6.172;2023-04-07T02:49:47;9.00;99.90
16038;DHT22;8123;50.906;6.172;2023-04-07T02:52:13;8.70;99.90
16038;DHT22;8123;50.906;6.172;2023-04-07T02:54:38;8.80;99.90
16038;DHT22;8123;50.906;6.172;2023-04-07T02:57:04;8.80;99.90
16038;DHT22;8123;50.906;6.172;2023-04-07T02:59:30;8.70;99.90
16038;DHT22;8123;50.906;6.172;2023-04-07T03:01:56;8.70;99.90
16038;DHT22;8123;50.906;6.172;2023-04-07T03:04:21;8.70;99.90
16038;DHT22;8123;50.906;6.172;2023-04-07T03:06:47;8.70;99.90
16038;DHT22;8123;50.906;6.172;2023-04-07T03:09:13;8.70;99.90
16038;DHT22;8123;50.906;6.172;2023-04-07T03:11:38;8.70;99.90
16038;DHT22;8123;50.906;6.172;2023-04-07T03:14:06;8.70;99.90
16038;DHT22;8123;50.906;6.172;2023-04-07T03:16:31;8.70;99.90
16038;DHT22;8123;50.906;6.172;2023-04-07T03:18:57;8.70;99.90
16038;DHT22;8123;50.906;6.172;2023-04-07T03:21:22;8.70;99.90
16038;DHT22;8123;50.906;6.172;2023-04-07T03:23:48;8.70;99.90
16038;DHT22;8123;50.906;6.172;2023-04-07T03:26:14;8.70;99.90
16038;DHT22;8123;50.906;6.172;2023-04-07T03:28:39;8.70;99.90
16038;DHT22;8123;50.906;6.172;2023-04-07T03:31:05;8.70;99.90
16038;DHT22;8123;50.906;6.172;2023-04-07T03:33:31;8.70;99.90
16038;DHT22;8123;50.906;6.172;2023-04-07T03:35:56;8.80;99.90
16038;DHT22;8123;50.906;6.172;2023-04-07T03:38:22;8.70;99.90
16038;DHT22;8123;50.906;6.172;2023-04-07T03:40:48;8.70;99.90
16038;DHT22;8123;50.906;6.172;2023-04-07T03:43:13;8.80;99.90
16038;DHT22;8123;50.906;6.172;2023-04-07T03:45:41;8.80;99.90
16038;DHT22;8123;50.906;6.172;2023-04-07T03:48:07;8.80;99.90
16038;DHT22;8123;50.906;6.172;2023-04-07T03:50:40;8.70;99.90
16038;DHT22;8123;50.906;6.172;2023-04-07T03:53:06;8.80;99.90
16038;DHT22;8123;50.906;6.172;2023-04-07T03:55:33;8.70;99.90
16038;DHT22;8123;50.906;6.172;2023-04-07T03:57:59;8.70;99.90
16038;DHT22;8123;50.906;6.172;2023-04-07T04:00:24;8.70;99.90
16038;DHT22;8123;50.906;6.172;2023-04-07T04:02:51;8.70;99.90
16038;DHT22;8123;50.906;6.172;2023-04-07T04:05:17;8.70;99.90
16038;DHT22;8123;50.906;6.172;2023-04-07T04:07:42;8.70;99.90
16038;DHT22;8123;50.906;6.172;2023-04-07T04:10:08;8.70;99.90
16038;DHT22;8123;50.906;6.172;2023-04-07T04:12:34;8.70;99.90
16038;DHT22;8123;50.906;6.172;2023-04-07T04:14:59;8.70;99.90
16038;DHT22;8123;50.906;6.172;2023-04-07T04:17:25;8.70;99.90
16038;DHT22;8123;50.906;6.172;2023-04-07T04:19:51;8.70;99.90
16038;DHT22;8123;50.906;6.172;2023-04-07T04:22:17;8.70;99.90
16038;DHT22;8123;50.906;6.172;2023-04-07T04:24:43;8.70;99.90
16038;DHT22;8123;50.906;6.172;2023-04-07T04:27:08;8.70;99.90
16038;DHT22;8123;50.906;6.172;2023-04-07T04:29:34;8.70;99.90
16038;DHT22;8123;50.906;6.172;2023-04-07T04:32:00;8.70;99.90
16038;DHT22;8123;50.906;6.172;2023-04-07T04:34:25;8.70;99.90
16038;DHT22;8123;50.906;6.172;2023-04-07T04:36:51;8.70;99.90
16038;DHT22;8123;50.906;6.172;2023-04-07T04:39:17;8.70;99.90
16038;DHT22;8123;50.906;6.172;2023-04-07T04:41:43;8.60;99.90
16038;DHT22;8123;50.906;6.172;2023-04-07T04:44:09;8.60;99.90
16038;DHT22;8123;50.906;6.172;2023-04-07T04:46:35;8.70;99.90
16038;DHT22;8123;50.906;6.172;2023-04-07T04:49:01;8.70;99.90
16038;DHT22;8123;50.906;6.172;2023-04-07T04:51:27;8.60;99.90
16038;DHT22;8123;50.906;6.172;2023-04-07T04:53:52;8.70;99.90
16038;DHT22;8123;50.906;6.172;2023-04-07T04:56:18;8.60;99.90
16038;DHT22;8123;50.906;6.172;2023-04-07T04:58:44;8.90;99.90
16038;DHT22;8123;50.906;6.172;2023-04-07T05:01:13;8.60;99.90
16038;DHT22;8123;50.906;6.172;2023-04-07T05:03:39;8.80;99.90
16038;DHT22;8123;50.906;6.172;2023-04-07T05:06:05;8.60;99.90
16038;DHT22;8123;50.906;6.172;2023-04-07T05:08:31;8.60;99.90
16038;DHT22;8123;50.906;6.172;2023-04-07T05:10:56;9.00;99.90
16038;DHT22;8123;50.906;6.172;2023-04-07T05:13:22;8.60;99.90
16038;DHT22;8123;50.906;6.172;2023-04-07T05:15:50;8.60;99.90
16038;DHT22;8123;50.906;6.172;2023-04-07T05:18:15;8.60;99.90
16038;DHT22;8123;50.906;6.172;2023-04-07T05:20:42;8.60;99.90
16038;DHT22;8123;50.906;6.172;2023-04-07T05:23:08;8.50;99.90
16038;DHT22;8123;50.906;6.172;2023-04-07T05:25:33;8.50;99.90
16038;DHT22;8123;50.906;6.172;2023-04-07T05:27:59;8.50;99.90
16038;DHT22;8123;50.906;6.172;2023-04-07T05:30:25;8.50;99.90
16038;DHT22;8123;50.906;6.172;2023-04-07T05:32:52;8.40;99.90
16038;DHT22;8123;50.906;6.172;2023-04-07T05:35:17;8.40;99.90
16038;DHT22;8123;50.906;6.172;2023-04-07T05:37:43;8.70;99.90
16038;DHT22;8123;50.906;6.172;2023-04-07T05:40:09;8.70;99.90
16038;DHT22;8123;50.906;6.172;2023-04-07T05:42:35;8.40;99.90
16038;DHT22;8123;50.906;6.172;2023-04-07T05:45:01;8.30;99.90
16038;DHT22;8123;50.906;6.172;2023-04-07T05:47:26;8.30;99.90
16038;DHT22;8123;50.906;6.172;2023-04-07T05:49:52;8.70;99.90
16038;DHT22;8123;50.906;6.172;2023-04-07T05:52:17;8.30;99.90
16038;DHT22;8123;50.906;6.172;2023-04-07T05:54:43;8.30;99.90
16038;DHT22;8123;50.906;6.172;2023-04-07T05:57:09;8.30;99.90
16038;DHT22;8123;50.906;6.172;2023-04-07T05:59:35;8.40;99.90
16038;DHT22;8123;50.906;6.172;2023-04-07T06:02:02;8.20;99.90
16038;DHT22;8123;50.906;6.172;2023-04-07T06:04:27;8.20;99.90
16038;DHT22;8123;50.906;6.172;2023-04-07T06:06:53;8.20;99.90
16038;DHT22;8123;50.906;6.172;2023-04-07T06:09:21;8.50;99.90
16038;DHT22;8123;50.906;6.172;2023-04-07T06:11:46;8.50;99.90
16038;DHT22;8123;50.906;6.172;2023-04-07T06:14:12;8.30;99.90
16038;DHT22;8123;50.906;6.172;2023-04-07T06:16:38;8.20;99.90
16038;DHT22;8123;50.906;6.172;2023-04-07T06:19:04;8.20;99.90
16038;DHT22;8123;50.906;6.172;2023-04-07T06:21:31;8.40;99.90
16038;DHT22;8123;50.906;6.172;2023-04-07T06:23:57;8.20;99.90
16038;DHT22;8123;50.906;6.172;2023-04-07T06:26:23;8.30;99.90
16038;DHT22;8123;50.906;6.172;2023-04-07T06:28:49;8.30;99.90
16038;DHT22;8123;50.906;6.172;2023-04-07T06:31:14;8.50;99.90
16038;DHT22;8123;50.906;6.172;2023-04-07T06:33:41;8.20;99.90
16038;DHT22;8123;50.906;6.172;2023-04-07T06:36:06;8.40;99.90
16038;DHT22;8123;50.906;6.172;2023-04-07T06:38:32;8.30;99.90
16038;DHT22;8123;50.906;6.172;2023-04-07T06:40:58;8.50;99.90
16038;DHT22;8123;50.906;6.172;2023-04-07T06:43:23;8.60;99.90
16038;DHT22;8123;50.906;6.172;2023-04-07T06:45:49;8.50;99.90
16038;DHT22;8123;50.906;6.172;2023-04-07T06:48:15;8.30;99.90
16038;DHT22;8123;50.906;6.172;2023-04-07T06:50:41;8.40;99.90
16038;DHT22;8123;50.906;6.172;2023-04-07T06:53:07;8.40;99.90
16038;DHT22;8123;50.906;6.172;2023-04-07T06:55:32;8.30;99.90
16038;DHT22;8123;50.906;6.172;2023-04-07T06:57:58;8.30;99.90
16038;DHT22;8123;50.906;6.172;2023-04-07T07:00:24;8.70;99.90
16038;DHT22;8123;50.906;6.172;2023-04-07T07:02:50;8.30;99.90
16038;DHT22;8123;50.906;6.172;2023-04-07T07:05:16;8.30;99.90
16038;DHT22;8123;50.906;6.172;2023-04-07T07:07:41;8.30;99.90
16038;DHT22;8123;50.906;6.172;2023-04-07T07:10:10;8.30;99.90
16038;DHT22;8123;50.906;6.172;2023-04-07T07:12:36;8.40;99.90
16038;DHT22;8123;50.906;6.172;2023-04-07T07:15:02;8.50;99.90
16038;DHT22;8123;50.906;6.172;2023-04-07T07:17:28;8.30;99.90
16038;DHT22;8123;50.906;6.172;2023-04-07T07:19:54;8.70;99.90
16038;DHT22;8123;50.906;6.172;2023-04-07T07:22:20;8.60;99.90
16038;DHT22;8123;50.906;6.172;2023-04-07T07:24:46;8.50;99.90
16038;DHT22;8123;50.906;6.172;2023-04-07T07:27:11;8.40;99.90
16038;DHT22;8123;50.906;6.172;2023-04-07T07:29:37;8.60;99.90
16038;DHT22;8123;50.906;6.172;2023-04-07T07:32:03;8.50;99.90
16038;DHT22;8123;50.906;6.172;2023-04-07T07:34:28;8.50;99.90
16038;DHT22;8123;50.906;6.172;2023-04-07T07:36:54;8.60;99.90
16038;DHT22;8123;50.906;6.172;2023-04-07T07:39:20;8.70;99.90
16038;DHT22;8123;50.906;6.172;2023-04-07T07:41:45;8.60;99.90
16038;DHT22;8123;50.906;6.172;2023-04-07T07:44:11;8.60;99.90
16038;DHT22;8123;50.906;6.172;2023-04-07T07:46:37;8.90;99.90
16038;DHT22;8123;50.906;6.172;2023-04-07T07:49:02;8.70;99.90
16038;DHT22;8123;50.906;6.172;2023-04-07T07:51:30;8.70;99.90
16038;DHT22;8123;50.906;6.172;2023-04-07T07:53:55;8.70;99.90
16038;DHT22;8123;50.906;6.172;2023-04-07T07:56:21;8.80;99.90
16038;DHT22;8123;50.906;6.172;2023-04-07T07:58:47;9.10;99.90
16038;DHT22;8123;50.906;6.172;2023-04-07T08:01:12;8.80;99.90
16038;DHT22;8123;50.906;6.172;2023-04-07T08:03:38;8.80;99.90
16038;DHT22;8123;50.906;6.172;2023-04-07T08:06:03;8.80;99.90
16038;DHT22;8123;50.906;6.172;2023-04-07T08:08:31;8.90;99.90
16038;DHT22;8123;50.906;6.172;2023-04-07T08:10:56;8.90;99.90
16038;DHT22;8123;50.906;6.172;2023-04-07T08:13:22;9.30;99.90
16038;DHT22;8123;50.906;6.172;2023-04-07T08:15:47;9.10;99.90
16038;DHT22;8123;50.906;6.172;2023-04-07T08:18:13;9.10;99.90
16038;DHT22;8123;50.906;6.172;2023-04-07T08:20:39;9.30;99.90
16038;DHT22;8123;50.906;6.172;2023-04-07T08:23:05;9.40;99.90
16038;DHT22;8123;50.906;6.172;2023-04-07T08:25:30;9.10;99.90
16038;DHT22;8123;50.906;6.172;2023-04-07T08:27:56;9.10;99.90
16038;DHT22;8123;50.906;6.172;2023-04-07T08:30:22;9.40;99.90
16038;DHT22;8123;50.906;6.172;2023-04-07T08:32:48;9.10;99.90
16038;DHT22;8123;50.906;6.172;2023-04-07T08:35:13;9.10;99.90
16038;DHT22;8123;50.906;6.172;2023-04-07T08:37:40;9.20;99.90
16038;DHT22;8123;50.906;6.172;2023-04-07T08:40:08;9.20;99.90
16038;DHT22;8123;50.906;6.172;2023-04-07T08:42:34;9.20;99.90
16038;DHT22;8123;50.906;6.172;2023-04-07T08:45:05;9.30;99.90
16038;DHT22;8123;50.906;6.172;2023-04-07T08:47:33;9.40;99.90
16038;DHT22;8123;50.906;6.172;2023-04-07T08:50:05;9.50;99.90
16038;DHT22;8123;50.906;6.172;2023-04-07T08:52:39;9.60;99.90
16038;DHT22;8123;50.906;6.172;2023-04-07T08:55:05;9.80;99.90
16038;DHT22;8123;50.906;6.172;2023-04-07T08:57:33;9.70;99.90
16038;DHT22;8123;50.906;6.172;2023-04-07T08:59:59;9.70;99.90
16038;DHT22;8123;50.906;6.172;2023-04-07T09:02:33;9.70;99.90
16038;DHT22;8123;50.906;6.172;2023-04-07T09:04:59;9.70;99.90
16038;DHT22;8123;50.906;6.172;2023-04-07T09:07:25;9.20;99.90
16038;DHT22;8123;50.906;6.172;2023-04-07T09:09:51;9.70;99.90
16038;DHT22;8123;50.906;6.172;2023-04-07T09:12:17;9.80;99.90
16038;DHT22;8123;50.906;6.172;2023-04-07T09:14:42;9.80;99.90
16038;DHT22;8123;50.906;6.172;2023-04-07T09:17:08;10.30;99.90
16038;DHT22;8123;50.906;6.172;2023-04-07T09:19:34;10.20;99.90
16038;DHT22;8123;50.906;6.172;2023-04-07T09:21:59;9.90;99.90
16038;DHT22;8123;50.906;6.172;2023-04-07T09:24:28;9.90;99.90
16038;DHT22;8123;50.906;6.172;2023-04-07T09:27:10;9.80;99.90
16038;DHT22;8123;50.906;6.172;2023-04-07T09:29:37;9.80;99.90
16038;DHT22;8123;50.906;6.172;2023-04-07T09:32:03;9.70;99.90
16038;DHT22;8123;50.906;6.172;2023-04-07T09:34:34;9.60;99.90
16038;DHT22;8123;50.906;6.172;2023-04-07T09:37:01;9.60;99.90
16038;DHT22;8123;50.906;6.172;2023-04-07T09:39:27;9.70;99.90
16038;DHT22;8123;50.906;6.172;2023-04-07T09:41:53;9.60;99.90
16038;DHT22;8123;50.906;6.172;2023-04-07T09:44:20;9.60;99.90
16038;DHT22;8123;50.906;6.172;2023-04-07T09:46:55;9.60;99.90
16038;DHT22;8123;50.906;6.172;2023-04-07T09:49:22;9.60;99.90
16038;DHT22;8123;50.906;6.172;2023-04-07T09:52:06;9.60;99.90
16038;DHT22;8123;50.906;6.172;2023-04-07T09:54:37;9.70;99.90
16038;DHT22;8123;50.906;6.172;2023-04-07T09:57:05;10.00;99.90
16038;DHT22;8123;50.906;6.172;2023-04-07T09:59:32;9.80;99.90
16038;DHT22;8123;50.906;6.172;2023-04-07T10:01:58;10.10;99.90
16038;DHT22;8123;50.906;6.172;2023-04-07T10:04:24;9.80;99.90
16038;DHT22;8123;50.906;6.172;2023-04-07T10:06:52;9.70;99.90
16038;DHT22;8123;50.906;6.172;2023-04-07T10:09:19;9.70;99.90
16038;DHT22;8123;50.906;6.172;2023-04-07T10:11:46;10.00;99.90
16038;DHT22;8123;50.906;6.172;2023-04-07T10:14:11;9.80;99.90
16038;DHT22;8123;50.906;6.172;2023-04-07T10:16:37;10.20;99.90
16038;DHT22;8123;50.906;6.172;2023-04-07T10:19:04;9.90;99.90
16038;DHT22;8123;50.906;6.172;2023-04-07T10:21:33;10.10;99.90
16038;DHT22;8123;50.906;6.172;2023-04-07T10:26:46;10.10;99.90
16038;DHT22;8123;50.906;6.172;2023-04-07T10:29:15;10.10;99.90
16038;DHT22;8123;50.906;6.172;2023-04-07T10:31:42;10.10;99.90
16038;DHT22;8123;50.906;6.172;2023-04-07T10:34:08;10.30;99.90
16038;DHT22;8123;50.906;6.172;2023-04-07T10:36:34;10.30;99.90
16038;DHT22;8123;50.906;6.172;2023-04-07T10:43:59;10.30;99.90
16038;DHT22;8123;50.906;6.172;2023-04-07T10:46:24;10.30;99.90
16038;DHT22;8123;50.906;6.172;2023-04-07T10:49:11;10.50;99.90
16038;DHT22;8123;50.906;6.172;2023-04-07T10:51:41;10.10;99.90
16038;DHT22;8123;50.906;6.172;2023-04-07T10:54:20;10.10;99.90
16038;DHT22;8123;50.906;6.172;2023-04-07T10:59:29;10.30;99.90
16038;DHT22;8123;50.906;6.172;2023-04-07T11:04:49;10.90;99.90
16038;DHT22;8123;50.906;6.172;2023-04-07T11:07:14;10.70;99.90
16038;DHT22;8123;50.906;6.172;2023-04-07T11:09:41;10.70;99.90
16038;DHT22;8123;50.906;6.172;2023-04-07T11:12:07;11.00;99.90
16038;DHT22;8123;50.906;6.172;2023-04-07T11:14:33;10.70;99.90
16038;DHT22;8123;50.906;6.172;2023-04-07T11:17:02;10.80;99.90
16038;DHT22;8123;50.906;6.172;2023-04-07T11:19:29;11.00;99.90
16038;DHT22;8123;50.906;6.172;2023-04-07T11:22:16;11.00;99.90
16038;DHT22;8123;50.906;6.172;2023-04-07T11:24:41;11.10;99.90
16038;DHT22;8123;50.906;6.172;2023-04-07T11:27:14;11.10;99.90
16038;DHT22;8123;50.906;6.172;2023-04-07T11:29:40;11.00;99.90
16038;DHT22;8123;50.906;6.172;2023-04-07T11:32:06;11.00;99.90
16038;DHT22;8123;50.906;6.172;2023-04-07T11:34:33;11.00;99.90
16038;DHT22;8123;50.906;6.172;2023-04-07T11:37:22;10.90;99.90
16038;DHT22;8123;50.906;6.172;2023-04-07T11:39:56;10.90;99.90
16038;DHT22;8123;50.906;6.172;2023-04-07T11:42:32;10.90;99.90
16038;DHT22;8123;50.906;6.172;2023-04-07T11:44:58;10.90;99.90
16038;DHT22;8123;50.906;6.172;2023-04-07T11:47:37;10.90;99.90
16038;DHT22;8123;50.906;6.172;2023-04-07T11:50:03;10.90;99.90
16038;DHT22;8123;50.906;6.172;2023-04-07T11:52:38;11.00;99.90
16038;DHT22;8123;50.906;6.172;2023-04-07T11:55:04;11.00;99.90
16038;DHT22;8123;50.906;6.172;2023-04-07T11:57:30;11.00;99.90
16038;DHT22;8123;50.906;6.172;2023-04-07T12:00:06;10.90;99.90
16038;DHT22;8123;50.906;6.172;2023-04-07T12:02:33;10.90;99.90
16038;DHT22;8123;50.906;6.172;2023-04-07T12:04:59;11.00;99.90
16038;DHT22;8123;50.906;6.172;2023-04-07T12:07:25;11.00;99.90
16038;DHT22;8123;50.906;6.172;2023-04-07T12:09:52;11.20;99.90
16038;DHT22;8123;50.906;6.172;2023-04-07T12:12:28;11.30;99.90
16038;DHT22;8123;50.906;6.172;2023-04-07T12:14:55;11.40;99.90
16038;DHT22;8123;50.906;6.172;2023-04-07T12:17:25;11.60;99.90
16038;DHT22;8123;50.906;6.172;2023-04-07T12:19:51;11.70;99.90
16038;DHT22;8123;50.906;6.172;2023-04-07T12:22:18;11.80;99.90
16038;DHT22;8123;50.906;6.172;2023-04-07T12:24:44;12.00;99.90
16038;DHT22;8123;50.906;6.172;2023-04-07T12:27:10;12.20;99.90
16038;DHT22;8123;50.906;6.172;2023-04-07T12:29:36;12.00;99.90
16038;DHT22;8123;50.906;6.172;2023-04-07T12:32:03;12.00;99.90
16038;DHT22;8123;50.906;6.172;2023-04-07T12:34:29;11.90;99.90
16038;DHT22;8123;50.906;6.172;2023-04-07T12:36:55;11.60;99.90
16038;DHT22;8123;50.906;6.172;2023-04-07T12:39:21;11.70;99.90
16038;DHT22;8123;50.906;6.172;2023-04-07T12:41:46;11.60;99.90
16038;DHT22;8123;50.906;6.172;2023-04-07T12:44:14;11.30;99.90
16038;DHT22;8123;50.906;6.172;2023-04-07T12:46:40;11.20;99.90
16038;DHT22;8123;50.906;6.172;2023-04-07T12:49:06;11.10;99.90
16038;DHT22;8123;50.906;6.172;2023-04-07T12:51:31;10.90;99.90
16038;DHT22;8123;50.906;6.172;2023-04-07T12:54:01;10.80;99.90
16038;DHT22;8123;50.906;6.172;2023-04-07T12:56:27;10.70;99.90
16038;DHT22;8123;50.906;6.172;2023-04-07T12:58:53;10.60;99.90
16038;DHT22;8123;50.906;6.172;2023-04-07T13:01:19;10.60;99.90
16038;DHT22;8123;50.906;6.172;2023-04-07T13:03:45;10.60;99.90
16038;DHT22;8123;50.906;6.172;2023-04-07T13:06:11;10.50;99.90
16038;DHT22;8123;50.906;6.172;2023-04-07T13:08:37;10.50;99.90
16038;DHT22;8123;50.906;6.172;2023-04-07T13:11:03;10.60;99.90
16038;DHT22;8123;50.906;6.172;2023-04-07T13:13:29;10.60;99.90
16038;DHT22;8123;50.906;6.172;2023-04-07T13:15:55;10.70;99.90
16038;DHT22;8123;50.906;6.172;2023-04-07T13:18:21;10.60;99.90
16038;DHT22;8123;50.906;6.172;2023-04-07T13:20:47;10.60;99.90
16038;DHT22;8123;50.906;6.172;2023-04-07T13:23:12;10.70;99.90
16038;DHT22;8123;50.906;6.172;2023-04-07T13:25:38;10.70;99.90
16038;DHT22;8123;50.906;6.172;2023-04-07T13:28:04;10.80;99.90
16038;DHT22;8123;50.906;6.172;2023-04-07T13:30:30;10.90;99.90
16038;DHT22;8123;50.906;6.172;2023-04-07T13:32:56;10.90;99.90
16038;DHT22;8123;50.906;6.172;2023-04-07T13:35:22;11.00;99.90
16038;DHT22;8123;50.906;6.172;2023-04-07T13:37:47;11.20;99.90
16038;DHT22;8123;50.906;6.172;2023-04-07T13:40:13;11.40;99.90
16038;DHT22;8123;50.906;6.172;2023-04-07T13:42:39;11.50;99.90
16038;DHT22;8123;50.906;6.172;2023-04-07T13:45:05;11.60;99.90
16038;DHT22;8123;50.906;6.172;2023-04-07T13:47:31;11.80;99.90
16038;DHT22;8123;50.906;6.172;2023-04-07T13:50:02;11.70;99.90
16038;DHT22;8123;50.906;6.172;2023-04-07T13:52:29;11.80;99.90
16038;DHT22;8123;50.906;6.172;2023-04-07T13:54:54;11.70;99.90
16038;DHT22;8123;50.906;6.172;2023-04-07T13:57:20;11.70;99.90
16038;DHT22;8123;50.906;6.172;2023-04-07T13:59:47;11.60;99.90
16038;DHT22;8123;50.906;6.172;2023-04-07T14:02:13;11.60;99.90
16038;DHT22;8123;50.906;6.172;2023-04-07T14:04:39;11.70;99.90
16038;DHT22;8123;50.906;6.172;2023-04-07T14:07:05;11.60;99.90
16038;DHT22;8123;50.906;6.172;2023-04-07T14:09:31;11.40;99.90
16038;DHT22;8123;50.906;6.172;2023-04-07T14:11:57;11.30;99.90
16038;DHT22;8123;50.906;6.172;2023-04-07T14:14:22;11.10;99.90
16038;DHT22;8123;50.906;6.172;2023-04-07T14:16:48;10.90;99.90
16038;DHT22;8123;50.906;6.172;2023-04-07T14:19:20;10.60;99.90
16038;DHT22;8123;50.906;6.172;2023-04-07T14:21:47;10.40;99.90
16038;DHT22;8123;50.906;6.172;2023-04-07T14:24:13;10.20;99.90
16038;DHT22;8123;50.906;6.172;2023-04-07T14:26:38;10.10;99.90
16038;DHT22;8123;50.906;6.172;2023-04-07T14:29:04;10.00;99.90
16038;DHT22;8123;50.906;6.172;2023-04-07T14:31:30;10.20;99.90
16038;DHT22;8123;50.906;6.172;2023-04-07T14:33:55;9.90;99.90
16038;DHT22;8123;50.906;6.172;2023-04-07T14:36:21;10.20;99.90
16038;DHT22;8123;50.906;6.172;2023-04-07T14:38:46;9.90;99.90
16038;DHT22;8123;50.906;6.172;2023-04-07T14:41:12;10.00;99.90
16038;DHT22;8123;50.906;6.172;2023-04-07T14:43:38;10.00;99.90
16038;DHT22;8123;50.906;6.172;2023-04-07T14:46:04;10.10;99.90
16038;DHT22;8123;50.906;6.172;2023-04-07T14:48:30;10.10;99.90
16038;DHT22;8123;50.906;6.172;2023-04-07T14:50:56;10.10;99.90
16038;DHT22;8123;50.906;6.172;2023-04-07T14:53:22;10.00;99.90
16038;DHT22;8123;50.906;6.172;2023-04-07T14:55:48;10.10;99.90
16038;DHT22;8123;50.906;6.172;2023-04-07T14:58:16;10.00;99.90
16038;DHT22;8123;50.906;6.172;2023-04-07T15:00:42;10.00;99.90
16038;DHT22;8123;50.906;6.172;2023-04-07T15:03:07;9.60;99.90
16038;DHT22;8123;50.906;6.172;2023-04-07T15:05:33;9.60;99.90
16038;DHT22;8123;50.906;6.172;2023-04-07T15:08:00;9.60;99.90
16038;DHT22;8123;50.906;6.172;2023-04-07T15:10:25;9.60;99.90
16038;DHT22;8123;50.906;6.172;2023-04-07T15:12:51;9.40;99.90
16038;DHT22;8123;50.906;6.172;2023-04-07T15:15:17;9.40;99.90
16038;DHT22;8123;50.906;6.172;2023-04-07T15:17:42;9.50;99.90
16038;DHT22;8123;50.906;6.172;2023-04-07T15:20:08;9.80;99.90
16038;DHT22;8123;50.906;6.172;2023-04-07T15:22:35;9.60;99.90
16038;DHT22;8123;50.906;6.172;2023-04-07T15:25:00;9.60;99.90
16038;DHT22;8123;50.906;6.172;2023-04-07T15:27:27;9.60;99.90
16038;DHT22;8123;50.906;6.172;2023-04-07T15:29:53;9.60;99.90
16038;DHT22;8123;50.906;6.172;2023-04-07T15:32:19;9.60;99.90
16038;DHT22;8123;50.906;6.172;2023-04-07T15:34:44;9.70;99.90
16038;DHT22;8123;50.906;6.172;2023-04-07T15:37:12;9.70;99.90
16038;DHT22;8123;50.906;6.172;2023-04-07T15:39:38;9.60;99.90
16038;DHT22;8123;50.906;6.172;2023-04-07T15:42:04;9.50;99.90
16038;DHT22;8123;50.906;6.172;2023-04-07T15:44:34;9.50;99.90
16038;DHT22;8123;50.906;6.172;2023-04-07T15:47:06;9.60;99.90
16038;DHT22;8123;50.906;6.172;2023-04-07T15:49:32;9.50;99.90
16038;DHT22;8123;50.906;6.172;2023-04-07T15:51:59;9.60;99.90
16038;DHT22;8123;50.906;6.172;2023-04-07T15:54:26;9.70;99.90
16038;DHT22;8123;50.906;6.172;2023-04-07T15:56:51;9.70;99.90
16038;DHT22;8123;50.906;6.172;2023-04-07T15:59:17;9.70;99.90
16038;DHT22;8123;50.906;6.172;2023-04-07T16:01:43;9.70;99.90
16038;DHT22;8123;50.906;6.172;2023-04-07T16:04:09;9.60;99.90
16038;DHT22;8123;50.906;6.172;2023-04-07T16:06:34;9.50;99.90
16038;DHT22;8123;50.906;6.172;2023-04-07T16:09:01;9.60;99.90
16038;DHT22;8123;50.906;6.172;2023-04-07T16:11:26;9.50;99.90
16038;DHT22;8123;50.906;6.172;2023-04-07T16:13:52;9.60;99.90
16038;DHT22;8123;50.906;6.172;2023-04-07T16:16:19;9.60;99.90